• Join FlightAware (Why Join?)
  • Login
  • US Flag 
03:43PM EDT


 

Airport Tracker/Info


-or-


 

Live Flight TrackerFlight Track Log ✈ SWA378 ✈ 25-Jun-2013 ✈ KSJC - KONT

Flight Track Log - Related Links

Times and Time Zones

All times are in EDT time to prevent confusion due to time zone crossing. See the SWA378 flight status page for this flight to view local times or setup timezone preferences in your user account.

Time Position Orientation Groundspeed Altitude Reporting Facility
EDT Latitude Longitude Course Direction KTS MPH feet Rate Location/Type
11:19AM 37.3167 -121.8833 141° Southeast 200 230 2,500  Level Northern Cal TRACON
11:20AM 37.2775 -121.8344 135° Southeast 213 245 4,200 2,580 Climbing Oakland Center
11:21AM 37.2158 -121.7564 135° Southeast 264 304 7,700 3,180 Climbing Oakland Center
11:22AM 37.1556 -121.6869 137° Southeast 285 328 10,700 2,820 Climbing Oakland Center
11:23AM 37.0886 -121.6106 138° Southeast 321 369 13,500 3,060 Climbing Oakland Center
11:24AM 37.0097 -121.5189 137° Southeast 353 406 17,000 2,940 Climbing Oakland Center
11:25AM 36.9628 -121.3746 141° Southeast  Level Estimated
11:25AM 36.9333 -121.4300 137° Southeast 376 433 19,500  Level Oakland Center
11:26AM 36.8511 -121.3342 137° Southeast 400 460 22,000 2,580 Climbing Oakland Center
11:27AM 36.7689 -121.2308 135° Southeast 413 475 24,800 2,340 Climbing Oakland Center
11:28AM 36.6967 -121.1136 128° Southeast 423 487 26,900 1,080 Climbing Oakland Center
11:29AM 36.6194 -120.9964 129° Southeast 435 501 27,000 1,320 Climbing Oakland Center
11:30AM 36.5422 -120.8731 128° Southeast 448 516 29,600 2,100 Climbing Oakland Center
11:31AM 36.4642 -120.7561 130° Southeast 442 509 31,400 1,620 Climbing Oakland Center
11:32AM 36.3864 -120.6342 128° Southeast 450 518 33,000 780 Climbing Oakland Center
11:33AM 36.3050 -120.5139 130° Southeast 455 524 33,000  Level Oakland Center
11:34AM 36.2222 -120.3872 129° Southeast 468 539 33,000  Level Oakland Center
11:36AM 36.1231 -120.2369 129° Southeast 469 540 33,000  Level Oakland Center
11:37AM 36.0408 -120.1153 130° Southeast 462 532 33,000  Level Oakland Center
11:38AM 35.9586 -119.9919 129° Southeast 463 533 33,000  Level Oakland Center
11:39AM 35.8778 -119.8708 129° Southeast 458 527 33,000  Level Oakland Center
11:40AM 35.7981 -119.7517 129° Southeast 451 519 33,000  Level Oakland Center
11:41AM 35.7181 -119.6322 129° Southeast 451 519 33,000  Level Oakland Center
11:42AM 35.6372 -119.5147 130° Southeast 450 518 33,000  Level Oakland Center
11:43AM 35.5578 -119.3981 130° Southeast 446 513 33,000  Level Oakland Center
11:44AM 35.4639 -119.2594 130° Southeast 443 510 33,000  Level Los Angeles Center
11:45AM 35.3853 -119.1436 130° Southeast 441 507 33,000  Level Los Angeles Center
11:46AM 35.3067 -119.0283 130° Southeast 440 506 33,000  Level Los Angeles Center
11:47AM 35.2100 -118.8878 130° Southeast 445 512 33,000  Level Los Angeles Center
11:48AM 35.1281 -118.7725 131° Southeast 449 517 33,000  Level Los Angeles Center
11:49AM 35.0472 -118.6567 130° Southeast 448 516 33,000 -1,260 Level Los Angeles Center
11:50AM 34.9514 -118.5169 130° Southeast 448 516 30,200 -1,860 Descending Los Angeles Center
11:51AM 34.8850 -118.4258 132° Southeast 436 502 29,200 -1,080 Descending Los Angeles Center
11:52AM 34.7969 -118.3006 131° Southeast 413 475 28,000 -1,740 Descending Los Angeles Center
11:53AM 34.7211 -118.1939 131° Southeast 419 482 25,700 -2,460 Descending Los Angeles Center
11:54AM 34.6314 -118.0636 130° Southeast 423 487 23,000 -2,040 Descending Los Angeles Center
11:55AM 34.5783 -117.9486 119° Southeast 393 452 21,600 -1,680 Descending Los Angeles Center
11:57AM 34.5239 -117.8300 119° Southeast 402 463 19,300 -2,160 Descending Los Angeles Center
11:58AM 34.4611 -117.6944 119° Southeast 387 445 16,700 -2,280 Descending Los Angeles Center
11:59AM 34.4111 -117.5869 119° Southeast 373 429 14,600 -1,800 Descending Los Angeles Center
12:00PM 34.3586 -117.4722 119° Southeast 343 395 13,100 -1,500 Descending Los Angeles Center
12:01PM 34.3144 -117.3797 120° Southeast 323 372 11,600 -1,500 Descending Los Angeles Center
12:02PM 34.2489 -117.3172 142° Southeast 294 338 10,000 -1,800 Descending Los Angeles Center
12:03PM 34.1847 -117.2594 143° Southeast 285 328 8,000 -1,800 Descending Los Angeles Center
12:04PM 34.0958 -117.2453 172° South 259 298 6,400 -1,140 Descending Los Angeles Center
12:05PM 34.0689 -117.3142 245° Southwest 244 281 5,700 -660 Descending Los Angeles Center
12:06PM 34.0556 -117.3619 251° West 206 237 5,100 -1,020 Descending Los Angeles Center
12:07PM 34.0556 -117.4219 270° West 167 192 3,700 -1,020 Descending Los Angeles Center
12:08PM 34.0561 -117.4675 271° West 149 171 2,800 -840 Descending Los Angeles Center
12:09PM 34.0567 -117.5300 271° West 138 159 1,800 -840 Descending Los Angeles Center
12:10PM 34.0500 -117.5833 261° West 128 147 1,100 -660 Descending Southern California TRACON
12:12PM 34.0500 -117.6000 270° West  Level FlightAware Approximate
12:19PM 34.0560 -117.6012 270° West  Level Estimated